Roff, Oklahoma
Current Conditions -  °F | °C
As of 10:15 PM on Tuesday 25 Nov 2014 (Local Time) from KADH Reporting Station
Clear Clear  
Wind Chill: 40°   Ceiling: Unl
Heat Index: 43°   Visibility: 10mi
Dew Point: 30°   Wind: 5mph
Humidity: 61%   Direction: 160°SSE
Pressure: 30.07"   Gusts: NA
Location:  34.63°N, 96.84°W
Report Text: KADH 260415Z AUTO 16004KT 10SM CLR 06/M01 A3007 RMK AO2
Loading
Personal Weather Stations






























Interactive Weather Map New forecast layout! Learn more

10-Day Weather Forecast

Advertisements
Track Severe Weather on mobile